Time;durP1;ratioP1;P1;durP2;ratioP2;P2;SDS_P1;SDS_P2;PMS_P1;PMS_P2;Temp;Humidity;BMP_temperature;BMP_pressure;BME280_temperature;BME280_humidity;BME280_pressure;Samples;Min_cycle;Max_cycle;Signal;HPM_P1;HPM_P2
2022/08/21 00:00:24;;;;;;;;;8.25;8.25;;;;;19.34;55.70;100886.03;5073321;27;45281;-72
2022/08/21 00:02:56;;;;;;;;;7.00;7.00;;;;;19.27;56.04;100875.81;5073461;27;45335;-72
2022/08/21 00:05:23;;;;;;;;;7.00;7.00;;;;;19.28;56.26;100874.00;5072133;28;45262;-71
2022/08/21 00:07:49;;;;;;;;;6.50;6.50;;;;;19.26;55.70;100873.25;5073317;27;45399;-72
2022/08/21 00:10:16;;;;;;;;;8.75;8.75;;;;;19.14;55.92;100859.00;5073226;28;45260;-71
2022/08/21 00:12:43;;;;;;;;;5.50;5.50;;;;;19.19;56.33;100864.00;5073408;27;45384;-71
2022/08/21 00:15:10;;;;;;;;;6.00;6.00;;;;;19.13;56.22;100849.28;5074943;27;45536;-73
2022/08/21 00:17:36;;;;;;;;;4.25;4.25;;;;;19.13;56.72;100857.28;5076399;27;48673;-70
2022/08/21 00:20:05;;;;;;;;;6.75;6.75;;;;;19.17;56.66;100853.44;5076292;27;45409;-71
2022/08/21 00:22:31;;;;;;;;;3.00;3.00;;;;;19.15;56.59;100858.03;5075166;27;45308;-71
2022/08/21 00:24:56;;;;;;;;;6.00;5.50;;;;;19.10;56.88;100858.38;5076476;27;45407;-71
2022/08/21 00:27:21;;;;;;;;;3.75;3.75;;;;;19.07;57.02;100850.56;5076339;27;46163;-72
2022/08/21 00:29:47;;;;;;;;;6.75;6.75;;;;;19.06;56.87;100856.03;5076461;27;45424;-71
2022/08/21 00:32:12;;;;;;;;;3.50;3.50;;;;;19.05;57.05;100862.31;5076716;27;45265;-73
2022/08/21 00:34:37;;;;;;;;;10.25;10.25;;;;;19.08;57.02;100856.75;5076593;27;45585;-72
2022/08/21 00:37:03;;;;;;;;;3.25;3.25;;;;;19.07;57.29;100855.91;5077381;27;46217;-71
2022/08/21 00:39:28;;;;;;;;;6.00;6.00;;;;;19.06;56.93;100853.34;5076529;27;45364;-72
2022/08/21 00:41:54;;;;;;;;;4.50;4.50;;;;;19.06;56.82;100859.53;5076558;27;45307;-70
2022/08/21 00:44:19;;;;;;;;;4.25;4.25;;;;;19.08;57.28;100854.09;5076252;27;45551;-71
2022/08/21 00:46:44;;;;;;;;;4.25;4.25;;;;;19.07;57.17;100853.22;5076119;27;45461;-71
2022/08/21 00:49:12;;;;;;;;;3.75;3.75;;;;;19.05;57.04;100862.31;5076488;27;45376;-71
2022/08/21 00:51:54;;;;;;;;;6.00;6.00;;;;;19.01;57.16;100856.34;5076167;27;45292;-71
2022/08/21 00:54:24;;;;;;;;;3.25;3.25;;;;;18.99;57.31;100852.94;5076075;27;45296;-72
2022/08/21 00:56:54;;;;;;;;;3.75;3.75;;;;;18.93;57.42;100846.22;5075540;28;45588;-72
2022/08/21 00:59:21;;;;;;;;;4.75;4.75;;;;;18.92;57.54;100848.97;5075522;27;45931;-72
2022/08/21 01:01:47;;;;;;;;;2.25;2.25;;;;;18.88;57.80;100843.03;5075933;27;45327;-72
2022/08/21 01:04:15;;;;;;;;;5.75;5.75;;;;;18.85;57.56;100843.25;5076215;27;45351;-71
2022/08/21 01:06:40;;;;;;;;;2.00;2.00;;;;;18.82;57.78;100846.13;5075973;27;45616;-73
2022/08/21 01:09:06;;;;;;;;;5.75;5.75;;;;;18.81;57.80;100841.75;5075386;27;45352;-71
2022/08/21 01:11:31;;;;;;;;;5.25;5.25;;;;;18.82;58.00;100848.78;5075789;27;45410;-71
2022/08/21 01:13:57;;;;;;;;;4.75;4.75;;;;;18.81;58.25;100847.94;5075690;27;45250;-71
2022/08/21 01:16:23;;;;;;;;;5.50;5.50;;;;;18.83;58.08;100856.66;5073831;27;47114;-72
2022/08/21 01:18:50;;;;;;;;;6.00;6.00;;;;;18.83;58.13;100853.16;5075124;27;45357;-72
2022/08/21 01:21:19;;;;;;;;;6.25;6.25;;;;;18.82;58.15;100849.63;5076049;27;45445;-72
2022/08/21 01:23:47;;;;;;;;;5.00;5.00;;;;;18.83;58.33;100851.34;5074433;28;45591;-72
2022/08/21 01:26:15;;;;;;;;;6.00;6.00;;;;;18.84;58.18;100853.03;5074609;27;45420;-71
2022/08/21 01:28:57;;;;;;;;;5.50;5.50;;;;;18.81;58.29;100850.59;5075652;28;45332;-71
2022/08/21 01:31:24;;;;;;;;;38.00;34.50;;;;;18.83;58.07;100853.16;5075536;27;45287;-72
2022/08/21 01:33:50;;;;;;;;;7.75;7.75;;;;;18.83;58.70;100862.00;5075685;27;45494;-71
2022/08/21 01:36:15;;;;;;;;;35.00;31.75;;;;;18.80;58.05;100859.53;5075375;27;45881;-71
2022/08/21 01:38:40;;;;;;;;;4.00;4.00;;;;;18.81;58.18;100865.75;5075096;27;45391;-72
2022/08/21 01:41:06;;;;;;;;;5.00;5.00;;;;;18.78;58.63;100864.13;5075413;27;45592;-71
2022/08/21 01:43:32;;;;;;;;;8.00;8.00;;;;;18.76;58.42;100867.88;5075283;27;45333;-70
2022/08/21 01:45:57;;;;;;;;;4.00;4.00;;;;;18.76;58.67;100875.88;5075005;27;46373;-70
2022/08/21 01:48:22;;;;;;;;;5.00;5.00;;;;;18.73;58.72;100876.09;5075060;27;45349;-70
2022/08/21 01:50:48;;;;;;;;;4.50;4.50;;;;;18.69;58.46;100870.97;5075102;27;45320;-71
2022/08/21 01:53:15;;;;;;;;;4.00;4.00;;;;;18.67;58.35;100869.38;5073870;28;45628;-72
2022/08/21 01:55:41;;;;;;;;;4.25;4.25;;;;;18.63;59.00;100868.75;5075042;27;46406;-71
2022/08/21 01:58:06;;;;;;;;;5.75;5.75;;;;;18.57;58.92;100863.84;5073642;27;45364;-70
2022/08/21 02:00:31;;;;;;;;;5.25;5.25;;;;;18.54;58.97;100856.03;5074924;27;45315;-71
2022/08/21 02:02:57;;;;;;;;;5.75;5.00;;;;;18.54;58.97;100856.91;5075055;27;45271;-71
2022/08/21 02:05:22;;;;;;;;;6.75;6.75;;;;;18.53;59.40;100851.66;5074583;27;45369;-71
2022/08/21 02:07:50;;;;;;;;;9.50;7.75;;;;;18.53;59.36;100863.19;5074881;27;46931;-72
2022/08/21 02:10:21;;;;;;;;;4.50;4.50;;;;;18.52;59.34;100853.50;5075051;27;45332;-72
2022/08/21 02:12:46;;;;;;;;;6.50;6.50;;;;;18.49;59.24;100844.84;5074879;27;45468;-71
2022/08/21 02:15:12;;;;;;;;;5.00;5.00;;;;;18.48;59.36;100853.81;5074264;28;46232;-72
2022/08/21 02:17:47;;;;;;;;;6.00;6.00;;;;;18.48;59.19;100853.81;5074532;27;45252;-72
2022/08/21 02:20:17;;;;;;;;;6.50;6.50;;;;;18.45;59.69;100844.22;5074731;27;45471;-71
2022/08/21 02:22:43;;;;;;;;;4.25;4.25;;;;;18.38;59.61;100838.47;5073134;28;45491;-72
2022/08/21 02:25:09;;;;;;;;;20.25;20.25;;;;;18.42;59.62;100841.78;5074161;27;45391;-70
2022/08/21 02:27:42;;;;;;;;;5.50;5.50;;;;;18.40;59.50;100846.34;5074652;28;45360;-71
2022/08/21 02:30:12;;;;;;;;;6.75;6.75;;;;;18.38;59.81;100837.63;5075020;27;45336;-71
2022/08/21 02:32:37;;;;;;;;;6.25;6.25;;;;;18.37;59.80;100827.94;5075032;27;45321;-71
2022/08/21 02:35:03;;;;;;;;;4.75;4.75;;;;;18.37;59.91;100836.75;5074311;27;46176;-71
2022/08/21 02:37:28;;;;;;;;;5.50;5.50;;;;;18.35;59.64;100835.16;5074197;28;45317;-72
2022/08/21 02:39:54;;;;;;;;;6.75;5.25;;;;;18.34;59.69;100841.47;5074470;27;45537;-71
2022/08/21 02:42:19;;;;;;;;;3.50;3.50;;;;;18.32;59.63;100844.22;5075232;27;45592;-71
2022/08/21 02:44:44;;;;;;;;;4.00;4.00;;;;;18.32;59.88;100844.22;5074685;27;47840;-71
2022/08/21 02:47:10;;;;;;;;;7.75;7.75;;;;;18.31;59.93;100841.66;5074276;27;45413;-71
2022/08/21 02:49:35;;;;;;;;;4.25;4.25;;;;;18.27;60.12;100838.34;5074442;27;45412;-71
2022/08/21 02:52:00;;;;;;;;;5.25;5.25;;;;;18.27;59.89;100842.84;5074306;27;45508;-71
2022/08/21 02:54:26;;;;;;;;;6.00;6.00;;;;;18.29;59.90;100849.75;5074113;27;46330;-71
2022/08/21 02:56:51;;;;;;;;;3.00;3.00;;;;;18.29;60.20;100855.06;5074402;27;45363;-71
2022/08/21 02:59:17;;;;;;;;;9.00;6.00;;;;;18.30;60.20;100856.78;5074842;27;45348;-72
2022/08/21 03:01:43;;;;;;;;;5.50;5.50;;;;;18.29;59.79;100849.75;5074740;27;45581;-71
2022/08/21 03:04:09;;;;;;;;;4.00;4.00;;;;;18.30;60.13;100842.63;5074024;27;46271;-71
2022/08/21 03:06:34;;;;;;;;;5.00;5.00;;;;;18.27;60.18;100849.00;5074170;27;45420;-71
2022/08/21 03:08:59;;;;;;;;;4.75;4.75;;;;;18.25;60.04;100846.47;5074352;27;45295;-72
2022/08/21 03:11:26;;;;;;;;;4.50;4.50;;;;;18.23;60.16;100843.06;5074335;28;45383;-70
2022/08/21 03:13:51;;;;;;;;;3.50;3.50;;;;;18.23;60.15;100840.38;5074791;27;46407;-71
2022/08/21 03:16:19;;;;;;;;;3.00;3.00;;;;;18.12;60.18;100826.09;5075228;27;45341;-70
2022/08/21 03:18:44;;;;;;;;;3.25;3.25;;;;;18.22;60.12;100844.00;5074482;28;45349;-70
2022/08/21 03:21:10;;;;;;;;;4.00;4.00;;;;;18.19;59.90;100835.38;5076431;27;45306;-70
2022/08/21 03:23:37;;;;;;;;;3.75;3.75;;;;;18.20;59.94;100835.28;5077195;27;47243;-71
2022/08/21 03:26:03;;;;;;;;;3.75;3.75;;;;;18.22;60.11;100845.81;5075658;27;45372;-72
2022/08/21 03:28:28;;;;;;;;;3.25;3.25;;;;;18.18;60.29;100839.84;5074176;27;45351;-72
2022/08/21 03:30:54;;;;;;;;;5.25;5.25;;;;;18.17;60.29;100826.63;5074008;27;45572;-71
2022/08/21 03:33:20;;;;;;;;;3.50;3.50;;;;;18.16;60.43;100831.13;5073989;27;45517;-72
2022/08/21 03:35:55;;;;;;;;;4.50;4.50;;;;;18.16;60.57;100835.56;5073779;27;45478;-73
2022/08/21 03:38:20;;;;;;;;;4.00;4.00;;;;;18.15;60.26;100834.75;5073993;28;45310;-70
2022/08/21 03:40:46;;;;;;;;;2.75;2.75;;;;;18.13;60.45;100828.66;5073943;27;45684;-71
2022/08/21 03:43:11;;;;;;;;;4.00;4.00;;;;;18.14;60.50;100821.50;5073516;27;46329;-70
2022/08/21 03:45:38;;;;;;;;;6.00;6.00;;;;;18.12;60.21;100812.78;5073402;27;45329;-72
2022/08/21 03:48:05;;;;;;;;;3.75;3.75;;;;;18.09;60.47;100798.72;5073616;27;45391;-71
2022/08/21 03:50:34;;;;;;;;;5.00;5.00;;;;;18.08;60.68;100801.50;5077248;28;45248;-72
2022/08/21 03:53:00;;;;;;;;;3.75;3.75;;;;;18.08;61.01;100804.16;5076970;28;46642;-72
2022/08/21 03:55:26;;;;;;;;;4.00;4.00;;;;;18.06;60.86;100803.44;5076679;27;45359;-70
2022/08/21 03:57:51;;;;;;;;;4.00;4.00;;;;;18.08;60.97;100806.84;5077457;27;45398;-71
2022/08/21 04:00:18;;;;;;;;;4.25;4.25;;;;;18.05;61.09;100797.22;5077285;27;45565;-71
2022/08/21 04:02:44;;;;;;;;;6.75;6.75;;;;;18.02;61.20;100800.09;5076853;27;46100;-72
2022/08/21 04:05:12;;;;;;;;;4.00;4.00;;;;;18.02;61.29;100796.56;5076799;27;45373;-72
2022/08/21 04:07:37;;;;;;;;;5.50;5.50;;;;;18.03;61.29;100798.31;5077011;27;45345;-72
2022/08/21 04:10:04;;;;;;;;;7.25;7.25;;;;;18.00;61.49;100793.13;5076906;27;45507;-71
2022/08/21 04:12:30;;;;;;;;;6.75;6.75;;;;;18.01;61.83;100792.22;5076402;27;45474;-71
2022/08/21 04:14:55;;;;;;;;;5.75;5.75;;;;;17.99;61.33;100791.44;5076379;27;45248;-71
2022/08/21 04:17:21;;;;;;;;;5.00;5.00;;;;;17.98;61.47;100787.06;5077485;27;45330;-71
2022/08/21 04:19:46;;;;;;;;;5.50;5.50;;;;;17.93;61.50;100784.72;5077511;27;45663;-71
2022/08/21 04:22:11;;;;;;;;;5.50;5.50;;;;;17.96;61.69;100801.31;5076922;27;45353;-70
2022/08/21 04:24:37;;;;;;;;;5.50;5.50;;;;;17.94;61.77;100802.41;5076293;27;51078;-71
2022/08/21 04:27:02;;;;;;;;;5.75;5.00;;;;;17.92;61.67;100810.47;5076757;27;45415;-70
2022/08/21 04:29:28;;;;;;;;;4.00;4.00;;;;;17.90;61.73;100811.56;5076897;27;45318;-72
2022/08/21 04:31:54;;;;;;;;;4.00;4.00;;;;;17.90;62.24;100812.38;5076886;27;46041;-70
2022/08/21 04:34:19;;;;;;;;;5.00;5.00;;;;;17.89;61.93;100817.84;5076501;27;45448;-71
2022/08/21 04:36:44;;;;;;;;;2.50;2.50;;;;;17.90;62.10;100822.19;5076455;27;52336;-70
2022/08/21 04:39:10;;;;;;;;;3.50;3.50;;;;;17.90;62.05;100824.84;5075736;27;45552;-71
2022/08/21 04:41:36;;;;;;;;;5.00;5.00;;;;;17.90;62.17;100828.34;5075091;27;46388;-72
2022/08/21 04:44:02;;;;;;;;;4.50;4.50;;;;;17.91;61.82;100827.41;5076416;27;45297;-72
2022/08/21 04:46:28;;;;;;;;;6.75;6.75;;;;;17.90;62.22;100824.84;5076436;27;45306;-72
2022/08/21 04:48:53;;;;;;;;;5.00;5.00;;;;;17.88;62.29;100830.28;5076648;27;45325;-71
2022/08/21 04:51:25;;;;;;;;;5.00;5.00;;;;;17.88;62.32;100834.75;5076459;27;45433;-72
2022/08/21 04:53:56;;;;;;;;;3.50;3.50;;;;;17.87;62.36;100825.91;5076107;27;45311;-71
2022/08/21 04:56:28;;;;;;;;;4.25;4.25;;;;;17.88;62.44;100826.78;5076242;27;45345;-71
2022/08/21 04:58:56;;;;;;;;;3.50;3.50;;;;;17.87;62.35;100827.72;5076601;27;45454;-72
2022/08/21 05:01:26;;;;;;;;;4.00;4.00;;;;;17.88;62.31;100832.94;5076256;27;45311;-72
2022/08/21 05:03:56;;;;;;;;;4.75;4.75;;;;;17.86;62.28;100834.84;5076175;27;45285;-73
2022/08/21 05:06:23;;;;;;;;;7.00;7.00;;;;;17.87;62.21;100833.88;5076020;28;45283;-71
2022/08/21 05:08:51;;;;;;;;;5.00;5.00;;;;;17.90;62.54;100838.16;5076010;27;45599;-70
2022/08/21 05:11:17;;;;;;;;;5.50;5.50;;;;;17.91;62.52;100840.72;5075832;27;47541;-70
2022/08/21 05:13:43;;;;;;;;;6.50;6.50;;;;;17.91;62.41;100831.88;5075563;27;45445;-70
2022/08/21 05:16:08;;;;;;;;;4.75;4.75;;;;;17.93;62.01;100837.97;5075871;27;45286;-70
2022/08/21 05:18:34;;;;;;;;;4.75;4.75;;;;;17.94;62.09;100831.69;5075753;27;45305;-71
2022/08/21 05:21:00;;;;;;;;;6.00;6.00;;;;;17.93;62.20;100828.16;5075237;27;45301;-71
2022/08/21 05:23:25;;;;;;;;;4.75;4.75;;;;;17.93;62.35;100829.97;5075727;27;45317;-72
2022/08/21 05:25:52;;;;;;;;;6.00;6.00;;;;;17.92;62.54;100823.78;5075608;27;45365;-71
2022/08/21 05:28:17;;;;;;;;;6.75;6.75;;;;;17.93;61.87;100827.31;5074545;27;45437;-70
2022/08/21 05:30:43;;;;;;;;;4.25;4.25;;;;;17.91;62.39;100823.91;5075643;27;45507;-71
2022/08/21 05:33:09;;;;;;;;;6.00;5.00;;;;;17.89;62.26;100828.47;5075393;27;45650;-72
2022/08/21 05:35:35;;;;;;;;;5.25;5.25;;;;;17.89;62.49;100839.97;5075543;27;45493;-71
2022/08/21 05:38:02;;;;;;;;;4.00;4.00;;;;;17.90;62.39;100839.00;5075586;27;45480;-71
2022/08/21 05:40:27;;;;;;;;;5.00;5.00;;;;;17.90;62.28;100831.00;5074185;27;48074;-71
2022/08/21 05:42:54;;;;;;;;;5.00;5.00;;;;;17.91;62.41;100832.72;5075241;27;45264;-72
2022/08/21 05:45:21;;;;;;;;;5.50;5.50;;;;;17.94;62.40;100823.69;5075491;27;45296;-70
2022/08/21 05:47:46;;;;;;;;;4.25;4.25;;;;;17.97;62.34;100831.47;5075543;27;45296;-72
2022/08/21 05:50:12;;;;;;;;;7.50;7.50;;;;;17.97;62.47;100826.16;5074896;27;45271;-70
2022/08/21 05:52:37;;;;;;;;;5.00;5.00;;;;;17.97;62.48;100823.50;5075068;27;45175;-72
2022/08/21 05:55:03;;;;;;;;;6.50;6.50;;;;;17.97;62.44;100831.47;5075186;27;45300;-72
2022/08/21 05:57:29;;;;;;;;;4.00;4.00;;;;;18.01;62.39;100840.13;5075928;28;45202;-71
2022/08/21 05:59:54;;;;;;;;;6.50;5.50;;;;;18.02;62.50;100841.81;5075183;27;46162;-72
2022/08/21 06:02:21;;;;;;;;;4.75;4.75;;;;;18.02;62.33;100839.16;5074837;27;45472;-72
2022/08/21 06:04:47;;;;;;;;;6.00;6.00;;;;;18.01;61.99;100832.13;5075233;27;45434;-72
2022/08/21 06:07:13;;;;;;;;;4.25;4.25;;;;;18.07;62.15;100845.06;5075765;27;45477;-72
2022/08/21 06:09:39;;;;;;;;;6.50;6.50;;;;;18.08;62.11;100842.28;5075583;27;46010;-72
2022/08/21 06:12:06;;;;;;;;;17.25;17.25;;;;;18.13;61.97;100839.31;5074532;27;45481;-73
2022/08/21 06:14:31;;;;;;;;;7.00;6.00;;;;;18.17;61.77;100840.81;5074742;27;45333;-71
2022/08/21 06:17:08;;;;;;;;;6.00;6.00;;;;;18.24;61.66;100850.09;5075298;27;45264;-72
2022/08/21 06:19:34;;;;;;;;;4.50;4.50;;;;;18.29;61.35;100844.41;5074934;27;46484;-71
2022/08/21 06:21:59;;;;;;;;;5.25;5.25;;;;;18.27;61.59;100835.69;5074816;27;45596;-71
2022/08/21 06:24:25;;;;;;;;;5.00;5.00;;;;;18.38;61.20;100848.28;5074663;27;45272;-71
2022/08/21 06:26:51;;;;;;;;;2.50;2.50;;;;;18.47;61.03;100849.44;5075068;27;45373;-70
2022/08/21 06:29:17;;;;;;;;;5.00;5.00;;;;;18.51;60.86;100846.47;5074528;27;46253;-71
2022/08/21 06:31:43;;;;;;;;;7.00;7.00;;;;;18.59;60.92;100845.06;5073007;27;45411;-72
2022/08/21 06:34:09;;;;;;;;;6.25;6.25;;;;;18.66;60.58;100835.69;5074479;27;45361;-72
2022/08/21 06:36:35;;;;;;;;;7.25;7.25;;;;;18.76;60.63;100839.41;5074764;27;45313;-72
2022/08/21 06:39:00;;;;;;;;;5.25;5.25;;;;;18.82;60.54;100838.13;5075575;27;46247;-71
2022/08/21 06:41:26;;;;;;;;;5.25;5.25;;;;;18.92;60.22;100843.63;5075509;28;45161;-71
2022/08/21 06:43:53;;;;;;;;;4.75;4.75;;;;;18.97;60.01;100836.19;5074459;27;45271;-72
2022/08/21 06:46:18;;;;;;;;;6.00;6.00;;;;;19.04;59.79;100828.63;5073342;28;45296;-71
2022/08/21 06:48:43;;;;;;;;;5.25;5.25;;;;;19.12;59.66;100818.25;5074032;27;45259;-72
2022/08/21 06:51:09;;;;;;;;;7.50;7.50;;;;;19.21;59.80;100814.91;5074635;27;45247;-72
2022/08/21 06:53:34;;;;;;;;;5.25;5.25;;;;;19.32;59.51;100818.59;5074409;27;45252;-72
2022/08/21 06:56:00;;;;;;;;;7.00;5.75;;;;;19.42;58.77;100815.16;5075119;27;45347;-71
2022/08/21 06:58:25;;;;;;;;;5.00;5.00;;;;;19.52;58.64;100811.81;5074422;27;45622;-73
2022/08/21 07:00:51;;;;;;;;;6.50;6.50;;;;;19.62;58.34;100812.81;5074758;28;45276;-72
2022/08/21 07:03:32;;;;;;;;;5.25;5.25;;;;;19.79;58.06;100818.69;5074552;27;45257;-71
2022/08/21 07:05:58;;;;;;;;;5.00;5.00;;;;;19.93;57.98;100815.88;5073522;27;45494;-72
2022/08/21 07:08:25;;;;;;;;;7.50;7.50;;;;;20.05;57.82;100815.91;5074234;27;46173;-71
2022/08/21 07:10:52;;;;;;;;;4.00;4.00;;;;;20.17;57.70;100814.09;5074382;27;45306;-71
2022/08/21 07:13:18;;;;;;;;;6.75;6.75;;;;;20.24;56.97;100812.66;5074358;27;45866;-72
2022/08/21 07:15:44;;;;;;;;;4.75;4.75;;;;;20.32;56.52;100814.75;5075324;27;45395;-71
2022/08/21 07:18:10;;;;;;;;;9.50;9.50;;;;;20.39;56.63;100818.66;5074940;27;46005;-71
2022/08/21 07:20:36;;;;;;;;;5.75;5.75;;;;;20.46;56.30;100814.53;5074641;27;45413;-72
2022/08/21 07:23:04;;;;;;;;;6.00;6.00;;;;;20.45;56.05;100815.50;5075519;27;45336;-72
2022/08/21 07:25:31;;;;;;;;;5.50;5.50;;;;;20.46;55.60;100819.88;5078079;27;45518;-72
2022/08/21 07:27:56;;;;;;;;;6.75;6.75;;;;;20.46;55.44;100816.31;5077393;27;46101;-71
2022/08/21 07:30:22;;;;;;;;;6.00;6.00;;;;;20.50;56.06;100810.63;5077046;27;45323;-71
2022/08/21 07:32:51;;;;;;;;;4.75;4.75;;;;;20.52;56.15;100805.16;5077518;27;45431;-72
2022/08/21 07:35:18;;;;;;;;;4.75;4.75;;;;;20.61;55.97;100816.94;5077523;27;45301;-72
2022/08/21 07:37:43;;;;;;;;;6.50;6.50;;;;;20.69;55.88;100811.84;5077216;27;45271;-71
2022/08/21 07:40:09;;;;;;;;;6.75;6.00;;;;;20.85;55.37;100816.88;5077193;27;45405;-71
2022/08/21 07:42:39;;;;;;;;;5.00;5.00;;;;;20.96;55.19;100811.50;5077862;27;45203;-70
2022/08/21 07:45:04;;;;;;;;;6.00;6.00;;;;;21.11;55.02;100809.38;5076194;27;45570;-72
2022/08/21 07:47:30;;;;;;;;;4.25;4.25;;;;;21.26;54.36;100801.09;5077289;27;45382;-71
2022/08/21 07:49:55;;;;;;;;;6.25;6.25;;;;;21.44;53.92;100806.75;5077152;27;45256;-72
2022/08/21 07:52:20;;;;;;;;;7.25;7.25;;;;;21.61;53.70;100816.06;5076942;27;45444;-71
2022/08/21 07:54:46;;;;;;;;;6.00;6.00;;;;;21.76;53.46;100803.25;5077427;27;45438;-71
2022/08/21 07:57:11;;;;;;;;;4.75;4.50;;;;;21.88;53.00;100802.22;5077030;27;45376;-72
2022/08/21 07:59:36;;;;;;;;;3.25;3.25;;;;;22.07;52.70;100803.31;5077428;27;46504;-70
2022/08/21 08:02:02;;;;;;;;;6.00;6.00;;;;;22.21;52.06;100809.31;5077995;27;45274;-70
2022/08/21 08:04:27;;;;;;;;;6.00;6.00;;;;;22.31;51.98;100802.19;5077376;27;45161;-72
2022/08/21 08:06:53;;;;;;;;;5.25;5.25;;;;;22.47;51.26;100807.09;5077059;27;46311;-70
2022/08/21 08:09:18;;;;;;;;;5.25;5.25;;;;;22.63;50.80;100798.53;5077202;28;45289;-72
2022/08/21 08:11:43;;;;;;;;;5.00;5.00;;;;;22.80;50.69;100807.78;5077042;27;45424;-70
2022/08/21 08:14:09;;;;;;;;;8.75;8.75;;;;;22.99;50.10;100800.78;5076558;27;45319;-71
2022/08/21 08:16:35;;;;;;;;;6.50;6.50;;;;;23.13;49.68;100794.19;5076857;27;45403;-70
2022/08/21 08:19:00;;;;;;;;;9.00;9.00;;;;;23.32;49.72;100799.59;5076815;28;45346;-71
2022/08/21 08:21:26;;;;;;;;;6.50;6.50;;;;;23.53;49.38;100801.28;5076894;28;45427;-70
2022/08/21 08:23:51;;;;;;;;;5.25;5.25;;;;;23.63;48.66;100799.44;5076836;27;45539;-71
2022/08/21 08:26:17;;;;;;;;;4.75;4.75;;;;;23.81;48.33;100800.59;5076431;27;45417;-72
2022/08/21 08:28:43;;;;;;;;;6.00;6.00;;;;;23.84;47.78;100795.75;5076620;27;45378;-70
2022/08/21 08:31:08;;;;;;;;;7.50;7.50;;;;;23.95;47.70;100797.44;5076637;27;45337;-70
2022/08/21 08:33:33;;;;;;;;;6.00;6.00;;;;;24.02;47.23;100789.72;5076872;27;45588;-72
2022/08/21 08:35:59;;;;;;;;;9.00;9.00;;;;;24.08;47.97;100797.19;5075895;27;46302;-71
2022/08/21 08:38:25;;;;;;;;;9.25;9.25;;;;;24.18;46.61;100791.78;5076324;27;45371;-70
2022/08/21 08:41:01;;;;;;;;;9.25;9.25;;;;;24.26;47.32;100794.56;5076430;27;45233;-71
2022/08/21 08:43:29;;;;;;;;;7.25;7.25;;;;;24.35;46.94;100793.69;5076537;27;45172;-71
2022/08/21 08:45:57;;;;;;;;;6.50;6.50;;;;;24.47;46.93;100796.22;5076229;27;45487;-71
2022/08/21 08:48:51;;;;;;;;;5.25;5.25;;;;;24.55;46.13;100795.47;5076289;28;45408;-70
2022/08/21 08:51:48;;;;;;;;;7.00;7.00;;;;;24.58;46.48;100787.97;5074978;28;45400;-72
2022/08/21 08:54:42;;;;;;;;;6.00;6.00;;;;;24.75;46.50;100793.56;5075853;27;45391;-72
2022/08/21 08:57:14;;;;;;;;;7.50;7.50;;;;;24.83;46.45;100785.59;5076780;27;47045;-72
2022/08/21 08:59:43;;;;;;;;;6.00;6.00;;;;;24.96;45.90;100787.94;5076273;27;45325;-71
2022/08/21 09:02:15;;;;;;;;;5.00;5.00;;;;;25.06;45.77;100787.88;5076165;27;45347;-72
2022/08/21 09:04:42;;;;;;;;;7.75;7.75;;;;;25.16;45.50;100785.94;5076383;27;45467;-72
2022/08/21 09:07:25;;;;;;;;;3.00;3.00;;;;;25.19;45.36;100780.25;5074858;28;46312;-72
2022/08/21 09:10:35;;;;;;;;;5.25;5.25;;;;;25.30;44.88;100781.03;5076054;27;45421;-71
2022/08/21 09:13:23;;;;;;;;;6.50;5.00;;;;;25.45;44.14;100779.53;5053039;28;45402;-70
2022/08/21 09:16:13;;;;;;;;;3.50;3.50;;;;;25.56;43.85;100773.06;5075973;27;45737;-72
2022/08/21 09:18:42;;;;;;;;;3.75;3.75;;;;;25.65;43.46;100769.44;5075730;27;45928;-71
2022/08/21 09:21:15;;;;;;;;;5.50;5.50;;;;;25.75;43.43;100769.34;5076003;27;45214;-71
2022/08/21 09:23:57;;;;;;;;;5.50;5.50;;;;;25.86;42.81;100764.69;5075985;27;45236;-70
2022/08/21 09:26:27;;;;;;;;;4.50;4.50;;;;;25.99;42.92;100756.22;5075753;27;45434;-71
2022/08/21 09:28:56;;;;;;;;;3.75;3.75;;;;;26.08;42.04;100761.47;5075506;27;46228;-71
2022/08/21 09:31:24;;;;;;;;;5.25;5.25;;;;;26.22;42.22;100762.78;5075261;27;45341;-71
2022/08/21 09:33:49;;;;;;;;;4.00;4.00;;;;;26.34;41.97;100760.63;5075544;27;45413;-71
2022/08/21 09:36:49;;;;;;;;;4.25;4.25;;;;;26.38;41.57;100755.78;5075861;28;45247;-72
2022/08/21 09:39:39;;;;;;;;;7.00;7.00;;;;;26.31;41.82;100762.81;5063291;27;46526;-71
2022/08/21 09:42:07;;;;;;;;;6.00;6.00;;;;;26.25;41.72;100756.19;5075468;27;45393;-71
2022/08/21 09:44:42;;;;;;;;;5.25;5.25;;;;;26.13;41.78;100761.00;5073864;28;45330;-70
2022/08/21 09:47:09;;;;;;;;;24.00;24.00;;;;;26.05;41.49;100756.41;5075026;27;45249;-71
2022/08/21 09:49:37;;;;;;;;;8.25;8.25;;;;;26.05;41.65;100761.78;5073999;27;47153;-71
2022/08/21 09:52:15;;;;;;;;;4.25;4.25;;;;;26.08;41.39;100766.03;5073913;27;45392;-70
2022/08/21 09:54:41;;;;;;;;;4.00;4.00;;;;;26.11;41.60;100763.03;5075510;27;45381;-71
2022/08/21 09:59:53;;;;;;;;;5.00;5.00;;;;;26.19;41.01;100751.44;5075076;28;45789;-72
2022/08/21 10:02:32;;;;;;;;;4.75;4.75;;;;;26.20;41.09;100747.75;5075140;27;45346;-70
2022/08/21 10:05:01;;;;;;;;;6.00;6.00;;;;;26.24;40.87;100746.41;5075284;27;45412;-73
2022/08/21 10:07:31;;;;;;;;;4.00;4.00;;;;;26.31;41.24;100747.47;5074002;27;45172;-72
2022/08/21 10:10:07;;;;;;;;;4.50;4.50;;;;;26.38;40.69;100739.59;5074846;27;45459;-70
2022/08/21 10:12:54;;;;;;;;;4.25;4.25;;;;;26.48;40.23;100739.44;5074709;27;45416;-71
2022/08/21 10:15:20;;;;;;;;;6.00;6.00;;;;;26.65;40.51;100725.03;5073292;27;45307;-71
2022/08/21 10:18:06;;;;;;;;;3.50;3.50;;;;;26.83;40.34;100727.63;5074948;27;45500;-72
2022/08/21 10:20:44;;;;;;;;;4.25;4.25;;;;;27.01;39.17;100717.72;5074710;27;45961;-70
2022/08/21 10:23:25;;;;;;;;;5.25;5.25;;;;;27.09;39.69;100710.47;5074682;27;45354;-72
2022/08/21 10:26:05;;;;;;;;;3.75;3.75;;;;;27.07;38.99;100706.25;5074721;27;45317;-71
2022/08/21 10:29:02;;;;;;;;;7.75;7.75;;;;;27.15;39.31;100711.66;5074809;27;45387;-71
2022/08/21 10:31:33;;;;;;;;;4.50;4.50;;;;;27.11;38.62;100705.75;5065117;27;45952;-71
2022/08/21 10:34:16;;;;;;;;;5.25;5.00;;;;;27.12;38.98;100703.88;5074389;27;45388;-70
2022/08/21 10:37:16;;;;;;;;;9.75;9.75;;;;;27.11;38.83;100694.09;5074541;27;45380;-70
2022/08/21 10:40:21;;;;;;;;;6.75;6.75;;;;;27.11;38.80;100692.25;5074736;27;45315;-72
2022/08/21 10:43:00;;;;;;;;;3.00;3.00;;;;;27.17;38.88;100703.41;5074298;27;45463;-70
2022/08/21 10:45:50;;;;;;;;;5.00;5.00;;;;;27.27;38.68;100701.38;5074739;27;45192;-71
2022/08/21 10:48:29;;;;;;;;;5.50;5.50;;;;;27.40;38.46;100700.84;5075233;27;45376;-71
2022/08/21 10:51:38;;;;;;;;;9.00;9.00;;;;;27.55;38.66;100695.63;5074660;27;45216;-70
2022/08/21 10:54:26;;;;;;;;;8.00;8.00;;;;;27.77;38.52;100680.59;5051735;28;45391;-72
2022/08/21 10:57:01;;;;;;;;;7.75;7.75;;;;;28.02;37.71;100680.50;5072677;27;45524;-71
2022/08/21 10:59:51;;;;;;;;;4.50;4.50;;;;;28.25;37.83;100669.81;5074296;27;45258;-71
2022/08/21 11:02:27;;;;;;;;;4.50;4.50;;;;;28.53;37.36;100676.56;5074463;27;45536;-71
2022/08/21 11:05:01;;;;;;;;;4.00;4.00;;;;;28.82;36.99;100680.50;5072636;28;47485;-70
2022/08/21 11:07:32;;;;;;;;;15.75;15.75;;;;;28.97;36.69;100680.53;5074152;27;45358;-70
2022/08/21 11:10:20;;;;;;;;;7.50;7.50;;;;;29.05;36.41;100676.94;5074303;27;45409;-70
2022/08/21 11:13:06;;;;;;;;;5.00;5.00;;;;;29.14;35.68;100678.56;5072432;27;45549;-72
2022/08/21 11:15:43;;;;;;;;;5.00;5.00;;;;;29.25;35.82;100680.84;5073779;27;45405;-72
2022/08/21 11:18:36;;;;;;;;;2.00;2.00;;;;;29.30;35.55;100680.28;5074086;27;45503;-72
2022/08/21 11:21:29;;;;;;;;;4.25;4.25;;;;;29.32;35.65;100693.63;5073797;28;45242;-71
2022/08/21 11:24:07;;;;;;;;;2.75;2.75;;;;;29.30;34.94;100696.56;5072295;27;45241;-74
2022/08/21 11:26:41;;;;;;;;;2.00;2.00;;;;;29.20;35.05;100694.09;5073474;27;46434;-72
2022/08/21 11:29:13;;;;;;;;;3.00;3.00;;;;;29.11;34.30;100701.41;5073431;27;45342;-71
2022/08/21 11:32:04;;;;;;;;;6.75;6.75;;;;;29.10;35.00;100693.50;5073604;27;45339;-71
2022/08/21 11:34:32;;;;;;;;;2.25;2.25;;;;;29.12;34.97;100703.09;5073803;27;45301;-72
2022/08/21 11:37:16;;;;;;;;;2.75;2.75;;;;;29.24;35.40;100692.69;5073511;27;46550;-71